Roslyn, South Dakota
Current Conditions -  °F | °C
As of 3:20 AM on Friday 19 Dec 2014 (Local Time) from KATY Reporting Station
Haze Haze  
Wind Chill: 18°   Ceiling: 300
Heat Index: 26°   Visibility: 3mi
Dew Point: 25°   Wind: 8mph
Humidity: 96%   Direction: 190°S
Pressure: 30.1"   Gusts: NA
Location:  45.5°N, 97.49°W
Report Text: KATY 190920Z AUTO 19007KT 3SM BR OVC003 M03/M04 A3010 RMK AO2 T10331039
Loading
Personal Weather Stations






























Interactive Weather Map New forecast layout! Learn more

10-Day Weather Forecast

Advertisements
Track Severe Weather on mobile